createdAt,value
2022-12-23T00:01:07.784Z,101012.56
2022-12-23T00:03:39.618Z,101015.50
2022-12-23T00:06:21.730Z,101008.56
2022-12-23T00:08:48.587Z,101028.13
2022-12-23T00:11:22.556Z,101028.97
2022-12-23T00:14:07.903Z,101002.22
2022-12-23T00:16:38.618Z,101020.47
2022-12-23T00:19:07.931Z,101013.41
2022-12-23T00:21:35.962Z,101016.94
2022-12-23T00:24:02.910Z,101011.34
2022-12-23T00:26:29.614Z,100992.50
2022-12-23T00:28:57.718Z,100979.09
2022-12-23T00:31:24.874Z,100986.16
2022-12-23T00:33:54.927Z,101004.06
2022-12-23T00:36:27.707Z,100988.50
2022-12-23T00:39:17.280Z,101020.84
2022-12-23T00:42:05.238Z,101010.25
2022-12-23T00:44:32.135Z,101015.59
2022-12-23T00:46:59.006Z,101027.75
2022-12-23T00:49:44.045Z,101038.38
2022-12-23T00:52:22.331Z,101031.41
2022-12-23T00:54:48.951Z,101036.50
2022-12-23T00:57:21.336Z,101040.41
2022-12-23T00:59:56.161Z,101017.78
2022-12-23T01:02:43.870Z,101033.09
2022-12-23T01:05:39.422Z,101026.19
2022-12-23T01:08:14.774Z,101028.38
2022-12-23T01:10:47.586Z,101033.09
2022-12-23T01:13:17.509Z,101033.09
2022-12-23T01:16:04.655Z,101037.97
2022-12-23T01:18:34.818Z,101038.84
2022-12-23T01:21:06.952Z,101039.69
2022-12-23T01:23:37.491Z,101038.97
2022-12-23T01:26:07.353Z,101050.41
2022-12-23T01:28:36.369Z,101031.41
2022-12-23T01:31:03.891Z,101033.63
2022-12-23T01:33:31.945Z,101024.13
2022-12-23T01:36:07.241Z,101038.97
2022-12-23T01:38:35.375Z,101042.13
2022-12-23T01:41:05.205Z,101050.13
2022-12-23T01:43:56.763Z,101030.81
2022-12-23T01:46:26.971Z,101016.09
2022-12-23T01:48:54.335Z,101023.75
2022-12-23T01:51:38.097Z,101006.50
2022-12-23T01:54:06.165Z,100993.19
2022-12-23T01:56:44.059Z,101000.28
2022-12-23T01:59:36.202Z,101002.59
2022-12-23T02:02:21.642Z,101001.72
2022-12-23T02:04:50.442Z,100998.56
2022-12-23T02:07:38.130Z,101003.41
2022-12-23T02:10:14.853Z,101013.28
2022-12-23T02:12:55.713Z,101006.81
2022-12-23T02:16:00.211Z,101002.69
2022-12-23T02:18:53.773Z,101022.66
2022-12-23T02:21:39.064Z,101011.09
2022-12-23T02:24:35.904Z,100995.88
2022-12-23T02:27:55.205Z,101001.09
2022-12-23T02:30:36.444Z,100996.97
2022-12-23T02:33:14.140Z,100996.13
2022-12-23T02:35:46.881Z,100999.66
2022-12-23T02:38:43.572Z,100990.16
2022-12-23T02:41:16.314Z,100988.22
2022-12-23T02:44:15.404Z,100991.03
2022-12-23T02:46:47.453Z,100987.34
2022-12-23T02:49:14.246Z,100974.97
2022-12-23T02:51:52.904Z,100985.81
2022-12-23T02:54:26.613Z,100963.66
2022-12-23T02:56:56.611Z,100970.09
2022-12-23T02:59:27.775Z,100959.41
2022-12-23T03:01:55.520Z,100962.06
2022-12-23T03:04:28.259Z,100991.03
2022-12-23T03:07:04.498Z,100978.50
2022-12-23T03:09:49.091Z,100976.41
2022-12-23T03:13:18.835Z,100979.94
2022-12-23T03:16:14.988Z,100981.63
2022-12-23T03:19:20.159Z,100970.81
2022-12-23T03:22:04.516Z,100976.16
2022-12-23T03:24:41.145Z,100982.25
2022-12-23T03:27:22.458Z,100979.56
2022-12-23T03:30:08.394Z,100982.13
2022-12-23T03:32:51.624Z,100979.56
2022-12-23T03:35:27.728Z,100981.75
2022-12-23T03:38:04.275Z,100984.69
2022-12-23T03:40:39.012Z,100978.34
2022-12-23T03:43:14.518Z,100968.63
2022-12-23T03:45:47.164Z,100981.00
2022-12-23T03:48:26.653Z,100977.59
2022-12-23T03:51:08.742Z,100976.66
2022-12-23T03:53:42.575Z,100953.06
2022-12-23T03:56:31.226Z,100953.91
2022-12-23T03:59:01.657Z,100950.50
2022-12-23T04:02:22.288Z,100971.66
2022-12-23T04:05:01.350Z,100972.25
2022-12-23T04:07:36.309Z,100970.56
2022-12-23T04:10:07.115Z,100971.66
2022-12-23T04:12:33.892Z,100966.91
2022-12-23T04:15:12.534Z,100950.09
2022-12-23T04:17:54.757Z,100949.16
2022-12-23T04:23:11.037Z,100933.31
2022-12-23T04:25:40.639Z,100949.59
2022-12-23T04:28:07.518Z,100922.78
2022-12-23T04:30:35.070Z,100939.66
2022-12-23T04:33:05.575Z,100949.38
2022-12-23T04:35:32.172Z,100969.13
2022-12-23T04:37:58.884Z,100961.81
2022-12-23T04:40:31.872Z,100960.09
2022-12-23T04:42:58.454Z,100960.09
2022-12-23T04:45:25.280Z,100970.81
2022-12-23T04:47:58.525Z,100973.13
2022-12-23T04:50:39.306Z,100984.69
2022-12-23T04:53:08.104Z,100970.56
2022-12-23T04:55:34.772Z,100972.75
2022-12-23T04:58:03.927Z,100970.78
2022-12-23T05:00:34.104Z,100971.53
2022-12-23T05:03:08.995Z,100954.25
2022-12-23T05:05:41.419Z,100961.78
2022-12-23T05:08:22.503Z,100971.53
2022-12-23T05:10:52.244Z,100965.44
2022-12-23T05:13:21.843Z,100956.69
2022-12-23T05:15:56.072Z,100941.25
2022-12-23T05:18:29.160Z,100952.78
2022-12-23T05:20:59.071Z,100958.78
2022-12-23T05:23:25.960Z,100964.94
2022-12-23T05:25:58.973Z,100958.88
2022-12-23T05:28:25.722Z,100973.47
2022-12-23T05:31:05.693Z,100971.66
2022-12-23T05:33:32.894Z,100973.34
2022-12-23T05:35:59.820Z,100978.59
2022-12-23T05:38:26.857Z,100977.00
2022-12-23T05:40:53.904Z,100973.34
2022-12-23T05:43:21.202Z,100969.81
2022-12-23T05:45:48.082Z,100960.94
2022-12-23T05:48:14.953Z,100956.56
2022-12-23T05:50:41.703Z,100966.41
2022-12-23T05:53:17.368Z,100971.66
2022-12-23T05:55:44.073Z,100976.16
2022-12-23T05:58:42.760Z,100974.56
2022-12-23T06:01:09.337Z,100973.72
2022-12-23T06:03:37.439Z,100960.72
2022-12-23T06:06:05.777Z,100977.38
2022-12-23T06:08:34.696Z,100974.84
2022-12-23T06:11:05.413Z,100974.94
2022-12-23T06:13:51.958Z,100986.50
2022-12-23T06:16:18.670Z,100982.00
2022-12-23T06:18:45.247Z,100977.00
2022-12-23T06:21:11.878Z,100973.25
2022-12-23T06:23:46.762Z,100981.28
2022-12-23T06:26:13.471Z,100982.25
2022-12-23T06:28:40.166Z,100997.34
2022-12-23T06:31:06.782Z,100997.47
2022-12-23T06:33:33.340Z,100995.16
2022-12-23T06:35:59.875Z,100997.84
2022-12-23T06:38:28.798Z,101009.13
2022-12-23T06:40:55.485Z,101011.22
2022-12-23T06:43:22.024Z,101012.91
2022-12-23T06:45:49.621Z,101010.00
2022-12-23T06:48:17.887Z,101006.59
2022-12-23T06:50:44.837Z,101012.19
2022-12-23T06:53:11.445Z,101017.91
2022-12-23T06:55:41.734Z,101022.53
2022-12-23T06:58:11.417Z,101024.97
2022-12-23T07:00:38.032Z,101016.22
2022-12-23T07:03:04.778Z,101019.00
2022-12-23T07:05:36.934Z,101032.63
2022-12-23T07:08:06.269Z,101036.28
2022-12-23T07:10:34.100Z,101038.81
2022-12-23T07:13:01.620Z,101023.63
2022-12-23T07:15:28.453Z,101015.59
2022-12-23T07:17:56.290Z,101032.16
2022-12-23T07:20:22.881Z,101046.00
2022-12-23T07:22:50.346Z,101041.38
2022-12-23T07:25:17.051Z,101034.78
2022-12-23T07:27:43.576Z,101024.22
2022-12-23T07:30:10.666Z,101036.38
2022-12-23T07:32:37.307Z,101039.66
2022-12-23T07:35:04.462Z,101034.06
2022-12-23T07:37:31.287Z,101030.41
2022-12-23T07:39:57.981Z,101011.50
2022-12-23T07:42:44.151Z,101022.84
2022-12-23T07:45:13.268Z,101021.72
2022-12-23T07:47:40.144Z,101033.16
2022-12-23T07:50:07.466Z,101027.72
2022-12-23T07:52:36.350Z,101038.03
2022-12-23T07:55:02.979Z,101019.16
2022-12-23T07:57:29.612Z,101013.66
2022-12-23T07:59:58.360Z,101044.81
2022-12-23T08:02:25.491Z,101029.34
2022-12-23T08:04:52.867Z,101030.81
2022-12-23T08:07:20.452Z,101019.13
2022-12-23T08:09:49.677Z,101029.72
2022-12-23T08:12:16.492Z,101026.91
2022-12-23T08:14:45.621Z,101032.97
2022-12-23T08:17:12.148Z,101042.75
2022-12-23T08:19:38.877Z,101042.97
2022-12-23T08:22:15.215Z,101046.38
2022-12-23T08:24:45.786Z,101049.06
2022-12-23T08:27:13.027Z,101044.19
2022-12-23T08:29:40.501Z,101041.22
2022-12-23T08:32:08.745Z,101047.84
2022-12-23T08:34:35.881Z,101052.22
2022-12-23T08:37:02.503Z,101045.78
2022-12-23T08:39:31.577Z,101052.38
2022-12-23T08:41:57.976Z,101044.53
2022-12-23T08:44:27.885Z,101044.13
2022-12-23T08:46:55.602Z,101041.19
2022-12-23T08:49:22.876Z,101041.66
2022-12-23T08:51:57.466Z,101035.31
2022-12-23T08:54:28.003Z,101042.50
2022-12-23T08:56:54.543Z,101038.59
2022-12-23T08:59:22.520Z,101038.94
2022-12-23T09:01:49.222Z,101029.50
2022-12-23T09:04:19.067Z,101035.22
2022-12-23T09:06:48.562Z,101044.91
2022-12-23T09:11:50.501Z,101028.78
2022-12-23T09:14:17.095Z,101037.63
2022-12-23T09:16:43.772Z,101044.16
2022-12-23T09:19:10.341Z,101036.84
2022-12-23T09:21:37.315Z,101035.91
2022-12-23T09:24:04.104Z,101041.47
2022-12-23T09:26:31.720Z,101043.47
2022-12-23T09:29:03.018Z,101056.22
2022-12-23T09:31:37.284Z,101056.88
2022-12-23T09:34:10.931Z,101074.19
2022-12-23T09:36:37.524Z,101060.06
2022-12-23T09:39:04.191Z,101056.38
2022-12-23T09:41:37.993Z,101059.13
2022-12-23T09:44:33.132Z,101058.41
2022-12-23T09:47:11.398Z,101058.09
2022-12-23T09:49:44.838Z,101046.53
2022-12-23T09:52:16.619Z,101040.91
2022-12-23T09:54:48.580Z,101040.66
2022-12-23T09:57:23.172Z,101053.19
2022-12-23T10:00:08.498Z,101051.00
2022-12-23T10:02:44.484Z,101059.56
2022-12-23T10:05:30.461Z,101059.91
2022-12-23T10:08:44.536Z,101058.47
2022-12-23T10:11:18.940Z,101069.28
2022-12-23T10:13:50.527Z,101074.22
2022-12-23T10:16:37.199Z,101072.78
2022-12-23T10:19:18.930Z,101073.22
2022-12-23T10:22:00.807Z,101077.44
2022-12-23T10:24:39.235Z,101070.66
2022-12-23T10:27:20.789Z,101061.03
2022-12-23T10:29:52.760Z,101054.00
2022-12-23T10:32:37.749Z,101055.81
2022-12-23T10:35:21.340Z,101055.25
2022-12-23T10:38:17.012Z,101043.59
2022-12-23T10:41:10.362Z,101035.78
2022-12-23T10:44:01.711Z,101037.75
2022-12-23T10:46:37.245Z,101042.44
2022-12-23T10:49:27.194Z,101036.91
2022-12-23T10:51:59.636Z,101030.31
2022-12-23T10:54:33.287Z,101040.94
2022-12-23T10:57:00.499Z,101036.34
2022-12-23T10:59:30.778Z,101025.97
2022-12-23T11:02:14.685Z,101023.19
2022-12-23T11:04:42.664Z,101001.53
2022-12-23T11:10:07.529Z,101024.34
2022-12-23T11:12:48.643Z,101017.69
2022-12-23T11:15:41.019Z,101019.97
2022-12-23T11:18:13.977Z,101029.72
2022-12-23T11:20:44.045Z,101026.63
2022-12-23T11:23:28.797Z,101011.31
2022-12-23T11:26:09.040Z,101020.50
2022-12-23T11:28:48.830Z,101022.38
2022-12-23T11:31:17.580Z,101019.84
2022-12-23T11:34:05.784Z,101027.38
2022-12-23T11:36:34.428Z,101017.72
2022-12-23T11:39:14.904Z,101022.53
2022-12-23T11:41:50.317Z,101014.47
2022-12-23T11:44:27.717Z,100998.97
2022-12-23T11:46:54.883Z,100990.50
2022-12-23T11:49:31.661Z,100980.34
2022-12-23T11:52:05.283Z,100993.69
2022-12-23T11:54:34.029Z,100988.56
2022-12-23T11:57:04.082Z,100988.16
2022-12-23T11:59:36.040Z,100973.72
2022-12-23T12:02:13.482Z,100977.97
2022-12-23T12:04:41.258Z,100978.69
2022-12-23T12:07:13.268Z,100967.94
2022-12-23T12:09:43.415Z,100965.09
2022-12-23T12:12:17.468Z,100964.94
2022-12-23T12:14:49.504Z,100953.78
2022-12-23T12:17:24.589Z,100947.41
2022-12-23T12:20:01.778Z,100940.16
2022-12-23T12:22:59.143Z,100933.94
2022-12-23T12:25:46.807Z,100942.41
2022-12-23T12:28:33.029Z,100951.94
2022-12-23T12:31:28.517Z,100948.09
2022-12-23T12:34:20.662Z,100937.34
2022-12-23T12:37:12.413Z,100939.88
2022-12-23T12:40:01.025Z,100945.53
2022-12-23T12:42:42.186Z,100951.50
2022-12-23T12:45:30.060Z,100937.75
2022-12-23T12:48:18.741Z,100945.09
2022-12-23T12:50:59.449Z,100941.56
2022-12-23T12:53:28.859Z,100938.47
2022-12-23T12:56:00.493Z,100943.31
2022-12-23T12:58:27.042Z,100932.94
2022-12-23T13:01:08.090Z,100924.03
2022-12-23T13:04:12.975Z,100918.38
2022-12-23T13:06:54.516Z,100899.38
2022-12-23T13:09:32.765Z,100903.06
2022-12-23T13:12:15.057Z,100919.22
2022-12-23T13:15:03.207Z,100916.94
2022-12-23T13:17:39.379Z,100914.94
2022-12-23T13:20:27.368Z,100921.19
2022-12-23T13:23:14.862Z,100926.59
2022-12-23T13:25:52.772Z,100933.06
2022-12-23T13:28:42.997Z,100934.47
2022-12-23T13:31:14.222Z,100933.34
2022-12-23T13:34:03.865Z,100941.00
2022-12-23T13:37:13.249Z,100955.69
2022-12-23T13:39:49.933Z,100959.25
2022-12-23T13:42:31.675Z,100963.06
2022-12-23T13:44:59.334Z,100970.00
2022-12-23T13:48:02.698Z,100959.81
2022-12-23T13:51:06.161Z,100959.69
2022-12-23T13:53:35.761Z,100947.97
2022-12-23T13:56:23.962Z,100957.88
2022-12-23T13:58:51.759Z,100958.31
2022-12-23T14:01:18.286Z,100960.97
2022-12-23T14:03:48.312Z,100954.03
2022-12-23T14:06:24.027Z,100959.66
2022-12-23T14:08:52.528Z,100965.31
2022-12-23T14:11:25.045Z,100955.72
2022-12-23T14:14:11.858Z,100957.66
2022-12-23T14:17:09.997Z,100954.56
2022-12-23T14:19:51.804Z,100948.03
2022-12-23T14:22:50.989Z,100958.50
2022-12-23T14:25:43.387Z,100961.91
2022-12-23T14:28:47.437Z,100959.88
2022-12-23T14:31:40.736Z,100962.44
2022-12-23T14:34:25.245Z,100965.13
2022-12-23T14:37:26.685Z,100964.84
2022-12-23T14:39:56.468Z,100964.13
2022-12-23T14:42:41.736Z,100958.03
2022-12-23T14:45:45.862Z,100972.59
2022-12-23T14:48:34.468Z,100970.19
2022-12-23T14:51:20.808Z,100957.03
2022-12-23T14:54:05.578Z,100962.25
2022-12-23T14:56:42.847Z,100959.44
2022-12-23T14:59:32.601Z,100969.91
2022-12-23T15:02:06.167Z,100975.69
2022-12-23T15:04:49.307Z,100972.28
2022-12-23T15:07:26.052Z,100964.06
2022-12-23T15:10:21.696Z,100967.19
2022-12-23T15:13:25.062Z,100967.72
2022-12-23T15:16:00.917Z,100960.22
2022-12-23T15:18:48.159Z,100942.22
2022-12-23T15:21:14.881Z,100950.56
2022-12-23T15:23:54.379Z,100938.47
2022-12-23T15:26:24.869Z,100947.50
2022-12-23T15:28:52.398Z,100944.50
2022-12-23T15:31:31.468Z,100930.47
2022-12-23T15:34:03.761Z,100933.59
2022-12-23T15:36:55.454Z,100933.13
2022-12-23T15:39:45.885Z,100932.81
2022-12-23T15:42:35.141Z,100944.06
2022-12-23T15:45:33.489Z,100925.81
2022-12-23T15:48:00.823Z,100920.97
2022-12-23T15:50:28.785Z,100917.84
2022-12-23T15:53:01.056Z,100894.97
2022-12-23T15:55:35.097Z,100904.25
2022-12-23T15:58:04.281Z,100912.69
2022-12-23T16:00:40.651Z,100923.78
2022-12-23T16:03:36.079Z,100924.78
2022-12-23T16:06:34.454Z,100939.94
2022-12-23T16:09:07.759Z,100952.13
2022-12-23T16:12:04.347Z,100949.94
2022-12-23T16:14:32.945Z,100943.66
2022-12-23T16:17:08.810Z,100963.41
2022-12-23T16:20:20.828Z,100955.59
2022-12-23T16:22:51.469Z,100954.75
2022-12-23T16:25:36.902Z,100948.81
2022-12-23T16:28:17.392Z,100955.97
2022-12-23T16:30:46.976Z,100954.44
2022-12-23T16:33:38.705Z,100957.34
2022-12-23T16:36:37.599Z,100968.19
2022-12-23T16:39:07.172Z,100965.66
2022-12-23T16:41:34.825Z,100972.97
2022-12-23T16:44:01.735Z,100964.19
2022-12-23T16:46:36.651Z,100974.78
2022-12-23T16:49:06.478Z,100970.75
2022-12-23T16:51:34.461Z,100968.91
2022-12-23T16:54:01.860Z,100957.13
2022-12-23T16:56:32.403Z,100954.16
2022-12-23T16:58:59.044Z,100968.03
2022-12-23T17:01:38.356Z,100972.28
2022-12-23T17:04:06.562Z,100978.25
2022-12-23T17:06:34.499Z,100985.16
2022-12-23T17:09:03.274Z,100986.03
2022-12-23T17:11:39.087Z,100983.34
2022-12-23T17:14:15.800Z,100983.09
2022-12-23T17:16:43.741Z,100966.81
2022-12-23T17:19:11.446Z,100970.22
2022-12-23T17:21:39.775Z,100968.66
2022-12-23T17:24:07.616Z,100949.19
2022-12-23T17:26:34.243Z,100958.66
2022-12-23T17:29:03.540Z,100951.03
2022-12-23T17:31:30.415Z,100968.06
2022-12-23T17:33:57.029Z,100956.38
2022-12-23T17:36:23.686Z,100966.09
2022-12-23T17:38:50.304Z,100962.72
2022-12-23T17:41:32.317Z,100949.19
2022-12-23T17:43:59.694Z,100963.81
2022-12-23T17:46:27.390Z,100971.13
2022-12-23T17:48:54.148Z,100973.69
2022-12-23T17:51:22.699Z,100988.25
2022-12-23T17:53:56.858Z,100964.03
2022-12-23T17:56:26.334Z,100963.78
2022-12-23T17:58:53.203Z,100989.00
2022-12-23T18:01:31.592Z,101002.59
2022-12-23T18:04:00.433Z,101006.88
2022-12-23T18:06:28.859Z,101015.50
2022-12-23T18:08:57.461Z,100997.31
2022-12-23T18:11:33.936Z,100991.88
2022-12-23T18:14:04.235Z,101003.03
2022-12-23T18:16:35.316Z,101010.88
2022-12-23T18:19:05.846Z,100991.13
2022-12-23T18:21:34.065Z,100991.13
2022-12-23T18:24:08.889Z,100993.28
2022-12-23T18:26:35.569Z,100995.97
2022-12-23T18:29:02.157Z,100990.59
2022-12-23T18:31:28.911Z,100988.78
2022-12-23T18:33:55.573Z,100985.97
2022-12-23T18:36:23.856Z,100996.44
2022-12-23T18:38:52.192Z,100997.31
2022-12-23T18:41:20.050Z,100983.75
2022-12-23T18:43:47.079Z,100979.25
2022-12-23T18:46:13.687Z,100979.38
2022-12-23T18:48:43.082Z,100973.41
2022-12-23T18:51:14.680Z,100987.41
2022-12-23T18:53:41.701Z,100975.88
2022-12-23T18:56:13.490Z,100966.25
2022-12-23T18:58:40.076Z,100956.03
2022-12-23T19:01:11.626Z,100971.59
2022-12-23T19:03:38.389Z,100972.19
2022-12-23T19:06:06.811Z,100975.44
2022-12-23T19:08:35.181Z,100980.56
2022-12-23T19:11:10.540Z,100964.63
2022-12-23T19:13:40.349Z,100944.53
2022-12-23T19:16:20.187Z,100959.78
2022-12-23T19:19:07.933Z,100943.47
2022-12-23T19:21:34.870Z,100916.19
2022-12-23T19:24:02.499Z,100919.75
2022-12-23T19:26:29.141Z,100921.78
2022-12-23T19:28:59.049Z,100935.31
2022-12-23T19:31:25.707Z,100940.69
2022-12-23T19:33:52.497Z,100960.78
2022-12-23T19:36:22.891Z,100960.66
2022-12-23T19:38:50.382Z,100986.25
2022-12-23T19:41:17.753Z,100991.59
2022-12-23T19:43:46.146Z,100986.97
2022-12-23T19:46:14.756Z,100988.19
2022-12-23T19:48:41.914Z,100995.00
2022-12-23T19:51:13.930Z,101002.19
2022-12-23T19:53:41.691Z,101005.97
2022-12-23T19:56:13.497Z,101001.31
2022-12-23T19:58:42.291Z,100979.44
2022-12-23T20:01:10.628Z,101001.59
2022-12-23T20:03:38.117Z,101004.00
2022-12-23T20:06:06.603Z,100997.53
2022-12-23T20:08:34.526Z,101005.34
2022-12-23T20:11:10.000Z,100988.25
2022-12-23T20:13:37.196Z,100958.72
2022-12-23T20:16:05.199Z,100972.19
2022-12-23T20:18:32.262Z,100966.69
2022-12-23T20:20:59.526Z,100969.38
2022-12-23T20:23:26.352Z,100989.84
2022-12-23T20:25:53.035Z,100984.50
2022-12-23T20:28:19.782Z,100966.47
2022-12-23T20:30:48.399Z,100981.81
2022-12-23T20:33:16.016Z,100988.03
2022-12-23T20:35:42.752Z,100981.81
2022-12-23T20:38:09.279Z,100995.94
2022-12-23T20:40:35.828Z,100991.44
2022-12-23T20:43:03.010Z,101013.69
2022-12-23T20:45:29.626Z,101006.38
2022-12-23T20:47:56.185Z,101005.56
2022-12-23T20:50:22.942Z,101008.09
2022-12-23T20:52:49.472Z,100992.16
2022-12-23T20:55:16.182Z,101002.16
2022-12-23T20:57:44.777Z,100992.53
2022-12-23T21:00:12.509Z,101001.44
2022-12-23T21:02:40.672Z,101001.53
2022-12-23T21:05:07.662Z,100999.84
2022-12-23T21:07:34.277Z,100990.22
2022-12-23T21:10:00.964Z,100997.41
2022-12-23T21:12:27.552Z,101000.94
2022-12-23T21:14:54.144Z,101001.81
2022-12-23T21:17:21.227Z,100996.16
2022-12-23T21:19:47.899Z,100998.75
2022-12-23T21:22:14.501Z,100986.06
2022-12-23T21:24:41.090Z,100994.50
2022-12-23T21:27:07.653Z,100994.50
2022-12-23T21:29:34.321Z,100975.53
2022-12-23T21:32:01.002Z,100984.53
2022-12-23T21:34:27.676Z,100994.16
2022-12-23T21:36:54.356Z,100995.97
2022-12-23T21:39:21.029Z,100990.00
2022-12-23T21:41:49.836Z,101005.00
2022-12-23T21:44:16.425Z,101004.88
2022-12-23T21:46:43.519Z,100990.38
2022-12-23T21:49:10.659Z,100993.41
2022-12-23T21:51:40.658Z,101022.03
2022-12-23T21:54:11.867Z,101018.03
2022-12-23T21:56:40.095Z,101045.31
2022-12-23T21:59:11.835Z,101045.19
2022-12-23T22:01:38.525Z,101063.97
2022-12-23T22:04:05.326Z,101051.06
2022-12-23T22:06:39.128Z,101060.28
2022-12-23T22:09:06.827Z,101067.97
2022-12-23T22:11:37.160Z,101042.13
2022-12-23T22:14:06.354Z,101045.66
2022-12-23T22:16:34.370Z,101049.19
2022-12-23T22:19:01.952Z,101032.00
2022-12-23T22:21:30.379Z,101023.25
2022-12-23T22:23:57.567Z,101015.31
2022-12-23T22:26:31.393Z,100982.91
2022-12-23T22:29:00.617Z,100979.38
2022-12-23T22:31:50.049Z,100965.97
2022-12-23T22:34:19.245Z,100979.25
2022-12-23T22:36:45.833Z,100985.34
2022-12-23T22:39:20.697Z,100980.00
2022-12-23T22:41:48.859Z,100966.81
2022-12-23T22:44:16.244Z,100973.91
2022-12-23T22:46:43.115Z,100979.00
2022-12-23T22:49:15.204Z,100964.88
2022-12-23T22:51:42.692Z,100944.41
2022-12-23T22:54:09.849Z,100944.41
2022-12-23T22:56:36.835Z,100940.88
2022-12-23T22:59:04.740Z,100916.28
2022-12-23T23:01:33.921Z,100930.41
2022-12-23T23:04:02.237Z,100929.44
2022-12-23T23:06:31.904Z,100917.00
2022-12-23T23:08:59.220Z,100915.41
2022-12-23T23:11:27.189Z,100943.22
2022-12-23T23:13:54.229Z,100947.59
2022-12-23T23:16:21.344Z,100944.78
2022-12-23T23:18:48.355Z,100948.44
2022-12-23T23:21:15.217Z,100952.13
2022-12-23T23:23:41.880Z,100945.19
2022-12-23T23:26:10.174Z,100961.63
2022-12-23T23:28:40.528Z,100971.13
2022-12-23T23:33:55.025Z,100946.75
2022-12-23T23:36:21.731Z,100943.06
2022-12-23T23:38:48.354Z,100944.53
2022-12-23T23:41:18.931Z,100922.97
2022-12-23T23:43:49.376Z,100909.44
2022-12-23T23:46:16.066Z,100902.34
2022-12-23T23:48:42.705Z,100921.72
2022-12-23T23:51:09.297Z,100935.66
2022-12-23T23:53:35.959Z,100942.84
2022-12-23T23:56:07.891Z,100964.00
2022-12-23T23:58:36.604Z,100955.25
